DW3636 Weather Reports


Display with metric or nautical units.
time (UTC)temp
F
wind
direction
speed
MPH
gust
MPH
rain 1hr
in
rain 24hr
in
rain mn
in
humidity
%
barometer
mb
20200328110013 72 117 3.0 8.0 0.00 0.00 0.00 87 1018.2
20200328104505 72 113 3.0 7.0 0.00 0.00 0.00 87 1018.2
20200328103005 73 107 3.0 10.0 0.00 0.00 0.00 87 1018.1
20200328101502 73 107 3.0 7.0 0.00 0.00 0.00 87 1017.8
20200328100007 73 136 3.0 7.0 0.00 0.00 0.00 86 1017.7
20200328094720 73 125 4.0 10.0 0.00 0.00 0.00 86 1017.5
20200328093224 73 169 4.0 9.0 0.00 0.00 0.00 85 1017.4
20200328091648 73 154 5.0 10.0 0.00 0.00 0.00 86 1017.4
20200328090108 74 191 3.0 11.0 0.00 0.00 0.00 86 1017.3
20200328084632 74 115 4.0 9.0 0.00 0.00 0.00 85 1017.3
20200328083145 74 128 3.0 11.0 0.00 0.00 0.00 85 1017.3
20200328081834 74 156 3.0 11.0 0.00 0.00 0.00 84 1017.4
20200328080237 74 128 5.0 11.0 0.00 0.00 0.00 85 1017.5
20200328074709 74 180 4.0 11.0 0.00 0.00 0.00 85 1017.6
20200328073251 74 157 3.0 7.0 0.00 0.00 0.00 85 1017.7
20200328071704 75 162 3.0 10.0 0.00 0.00 0.00 84 1017.8
20200328070150 75 141 4.0 12.0 0.00 0.00 0.00 83 1017.8
20200328064826 75 158 3.0 12.0 0.00 0.00 0.00 83 1017.9
20200328063145 75 148 4.0 11.0 0.00 0.00 0.00 85 1018.2
20200328061641 74 140 4.0 8.0 0.00 0.00 0.00 90 1018.3
20200328060050 73 142 1.0 4.0 0.00 0.00 0.00 93 1018.4
20200328054609 73 249 0.0 0.0 0.00 0.00 0.00 93 1018.5
20200328053127 73 249 0.0 0.0 0.00 0.00 0.00 92 1018.7
20200328051611 73 249 0.0 0.0 0.00 0.00 0.00 92 1018.9
20200328050132 73 249 0.0 0.0 0.00 0.00 0.00 92 1018.9
20200328044615 73 249 0.0 0.0 0.00 0.00 0.00 92 1019.0
20200328043056 73 249 0.0 0.0 0.00 0.00 0.00 92 1018.8
20200328041524 73 249 0.0 0.0 0.00 0.00 0.00 92 1019.0
20200328040041 73 249 0.0 0.0 0.00 0.00 0.00 91 1019.1
20200328034512 73 249 0.0 0.0 0.00 0.00 0.00 91 1019.0
20200328033020 73 249 0.0 0.0 0.00 0.00 0.00 90 1019.0
20200328031512 74 249 0.0 0.0 0.00 0.00 0.00 89 1018.9
20200328030016 74 247 0.0 0.0 0.00 0.00 0.00 89 1019.0
20200328024521 75 247 0.0 0.0 0.00 0.00 0.00 88 1019.1
20200328023008 75 246 0.0 0.0 0.00 0.00 0.00 86 1018.9
20200328021520 76 242 0.0 1.0 0.00 0.00 0.00 86 1018.9
20200328020006 75 250 0.0 2.0 0.00 0.00 0.00 86 1018.8
20200328014529 75 256 0.0 1.0 0.00 0.00 0.00 87 1018.7
20200328013007 75 256 0.0 1.0 0.00 0.00 0.00 86 1018.5
20200328011502 75 257 0.0 0.0 0.00 0.00 0.00 86 1018.2
20200328010147 75 256 0.0 0.0 0.00 0.00 0.00 86 1017.8
20200328004711 75 256 0.0 0.0 0.00 0.00 0.00 85 1017.7
20200328003143 76 257 0.0 2.0 0.00 0.00 0.00 83 1017.5
20200328001607 77 257 1.0 3.0 0.00 0.00 0.00 82 1017.4
20200328000116 78 273 2.0 4.0 0.00 0.00 0.00 80 1017.2
20200327234643 78 271 1.0 4.0 0.00 0.00 0.00 80 1017.1
20200327233232 79 234 2.0 8.0 0.00 0.00 0.00 79 1017.0
20200327231740 80 232 2.0 7.0 0.00 0.00 0.00 76 1016.8
20200327230213 80 253 4.0 9.0 0.00 0.00 0.00 75 1016.8
20200327224658 81 239 4.0 10.0 0.00 0.00 0.00 72 1016.7
20200327223157 82 242 4.0 9.0 0.00 0.00 0.00 68 1016.8
20200327221754 82 218 3.0 10.0 0.00 0.00 0.00 65 1016.7
20200327220307 82 278 4.0 11.0 0.00 0.00 0.00 65 1016.6
20200327214716 83 202 4.0 10.0 0.00 0.00 0.00 65 1016.5
20200327213205 84 283 6.0 13.0 0.00 0.00 0.00 61 1016.3
20200327211715 84 230 6.0 11.0 0.00 0.00 0.00 61 1016.2
20200327210143 84 252 3.0 13.0 0.00 0.00 0.00 61 1016.3
20200327204629 84 240 8.0 14.0 0.00 0.00 0.00 62 1016.3
20200327203301 87 238 4.0 10.0 0.00 0.00 0.00 59 1016.2
20200327201640 85 221 5.0 11.0 0.00 0.00 0.00 58 1016.2
20200327200124 85 296 4.0 13.0 0.00 0.00 0.00 59 1016.1
20200327194611 87 244 4.0 14.0 0.00 0.00 0.00 57 1016.1
20200327193202 87 230 7.0 12.0 0.00 0.00 0.00 55 1016.4
20200327191627 88 218 4.0 9.0 0.00 0.00 0.00 54 1016.6
20200327190157 87 204 4.0 9.0 0.00 0.00 0.00 55 1016.9
20200327184706 88 78 3.0 8.0 0.00 0.00 0.00 54 1016.9
20200327183100 88 128 4.0 10.0 0.00 0.00 0.00 55 1017.2
20200327181731 89 192 1.0 9.0 0.00 0.00 0.00 53 1017.3
20200327180154 87 126 5.0 9.0 0.00 0.00 0.00 52 1017.3
20200327174613 87 139 3.0 10.0 0.00 0.00 0.00 50 1017.5
20200327173141 87 153 2.0 8.0 0.00 0.00 0.00 51 1017.7
20200327171549 85 152 4.0 10.0 0.00 0.00 0.00 56 1017.8
20200327170129 85 142 5.0 11.0 0.00 0.00 0.00 56 1017.9
20200327164554 85 128 3.0 10.0 0.00 0.00 0.00 55 1017.8
20200327163043 85 163 4.0 8.0 0.00 0.00 0.00 56 1017.9
20200327161526 84 105 3.0 7.0 0.00 0.00 0.00 56 1017.8
20200327160031 83 168 3.0 7.0 0.00 0.00 0.00 62 1018.0
20200327154530 81 143 4.0 8.0 0.00 0.00 0.00 71 1018.1
20200327153119 82 114 3.0 7.0 0.00 0.00 0.00 74 1018.1
20200327151512 81 115 2.0 5.0 0.00 0.00 0.00 77 1018.1
20200327150002 79 101 3.0 7.0 0.00 0.00 0.00 79 1018.2
20200327144637 78 115 2.0 6.0 0.00 0.00 0.00 81 1018.0
20200327143154 78 131 2.0 6.0 0.00 0.00 0.00 82 1017.8
20200327141615 78 90 1.0 3.0 0.00 0.00 0.00 82 1017.7
20200327140048 78 90 1.0 5.0 0.00 0.00 0.00 82 1017.7
20200327134541 76 338 1.0 4.0 0.00 0.00 0.00 83 1017.5
20200327133130 75 263 1.0 3.0 0.00 0.00 0.00 86 1017.6
20200327131545 75 333 0.0 0.0 0.00 0.00 0.00 89 1017.3
20200327130058 73 333 0.0 2.0 0.00 0.00 0.00 92 1017.3
20200327124608 72 333 0.0 2.0 0.00 0.00 0.00 95 1017.3
20200327123041 71 332 1.0 3.0 0.00 0.00 0.00 95 1017.2
20200327121530 69 333 0.0 0.0 0.00 0.00 0.00 96 1017.1
20200327120041 68 332 0.0 0.0 0.00 0.00 0.00 95 1017.0
20200327114540 68 333 0.0 1.0 0.00 0.00 0.00 95 1017.0
20200327113003 68 332 0.0 1.0 0.00 0.00 0.00 95 1016.8
20200327111503 68 332 0.0 2.0 0.00 0.00 0.00 95 1016.7